Time;durP1;ratioP1;P1;durP2;ratioP2;P2;SDS_P1;SDS_P2;PMS_P1;PMS_P2;Temp;Humidity;BMP_temperature;BMP_pressure;BME280_temperature;BME280_humidity;BME280_pressure;Samples;Min_cycle;Max_cycle;Signal;HPM_P1;HPM_P2
2023/01/23 00:01:26;;;;;;;4.18;2.75;;;;;;;19.09;45.60;101426.03;5034485;28;20052;-58
2023/01/23 00:03:54;;;;;;;3.90;2.30;;;;;;;19.08;45.46;101424.28;5034271;28;20046;-58
2023/01/23 00:06:23;;;;;;;4.55;2.20;;;;;;;19.07;45.09;101430.63;5034226;28;20053;-59
2023/01/23 00:08:50;;;;;;;6.40;2.75;;;;;;;19.07;45.30;101423.44;5033644;28;20037;-46
2023/01/23 00:11:21;;;;;;;4.47;2.05;;;;;;;19.06;45.22;101423.56;5033587;28;20057;-46
2023/01/23 00:13:49;;;;;;;3.85;2.50;;;;;;;19.06;45.10;101423.56;5033771;28;20512;-46
2023/01/23 00:16:21;;;;;;;4.20;2.38;;;;;;;19.05;45.15;101430.75;5033573;28;20041;-47
2023/01/23 00:18:49;;;;;;;6.05;2.90;;;;;;;19.05;45.37;101424.53;5034101;28;20408;-47
2023/01/23 00:21:19;;;;;;;4.63;2.55;;;;;;;19.04;45.47;101431.75;5033778;28;20049;-47
2023/01/23 00:23:49;;;;;;;3.58;2.30;;;;;;;19.05;45.35;101435.28;5032610;28;20046;-46
2023/01/23 00:26:20;;;;;;;4.95;2.60;;;;;;;19.03;45.32;101428.19;5033903;28;20050;-45
2023/01/23 00:28:49;;;;;;;4.70;2.78;;;;;;;19.03;45.35;101421.97;5033783;28;20053;-59
2023/01/23 00:31:29;;;;;;;3.85;2.25;;;;;;;19.02;45.28;101426.47;5034674;28;20061;-59
2023/01/23 00:33:59;;;;;;;3.95;2.45;;;;;;;19.01;45.19;101410.50;5033927;28;20365;-59
2023/01/23 00:36:29;;;;;;;3.92;2.58;;;;;;;19.02;45.09;101404.16;5034058;28;20049;-59
2023/01/23 00:38:57;;;;;;;4.28;2.70;;;;;;;19.01;45.31;101397.09;5033103;28;20049;-59
2023/01/23 00:41:25;;;;;;;3.78;2.45;;;;;;;19.00;45.32;101393.56;5033888;28;20045;-59
2023/01/23 00:43:53;;;;;;;3.25;2.17;;;;;;;18.99;45.06;101407.91;5033635;28;20045;-59
2023/01/23 00:46:20;;;;;;;3.85;1.92;;;;;;;19.00;45.14;101408.78;5033739;28;20395;-59
2023/01/23 00:48:48;;;;;;;3.08;2.15;;;;;;;18.98;45.13;101400.84;5032513;28;20526;-59
2023/01/23 00:51:16;;;;;;;4.07;2.40;;;;;;;18.99;45.22;101401.69;5033621;28;20045;-59
2023/01/23 00:53:43;;;;;;;3.28;2.20;;;;;;;18.98;45.11;101400.84;5033202;28;20060;-59
2023/01/23 00:56:11;;;;;;;5.35;2.33;;;;;;;18.97;45.18;101393.78;5032119;28;20376;-59
2023/01/23 00:58:40;;;;;;;3.38;2.33;;;;;;;18.98;45.12;101394.63;5032144;28;20053;-59
2023/01/23 01:01:12;;;;;;;3.20;2.08;;;;;;;18.98;45.19;101394.63;5031769;28;20049;-60
2023/01/23 01:03:41;;;;;;;2.88;2.10;;;;;;;18.97;45.12;101392.91;5031690;28;20057;-59
2023/01/23 01:06:09;;;;;;;3.83;2.40;;;;;;;18.97;45.12;101400.97;5032308;28;20045;-59
2023/01/23 01:08:36;;;;;;;3.78;2.35;;;;;;;18.97;45.28;101403.66;5032837;28;20058;-50
2023/01/23 01:11:05;;;;;;;3.47;2.33;;;;;;;18.96;45.24;101416.22;5031588;28;20415;-49
2023/01/23 01:13:32;;;;;;;6.20;2.90;;;;;;;18.97;45.02;101420.59;5032544;28;20060;-46
2023/01/23 01:16:02;;;;;;;2.90;2.17;;;;;;;18.96;45.07;101418.91;5033198;28;20049;-47
2023/01/23 01:18:30;;;;;;;4.25;2.78;;;;;;;18.96;44.98;101426.94;5031870;28;20050;-49
2023/01/23 01:20:58;;;;;;;5.07;3.08;;;;;;;18.96;45.04;101420.72;5031770;28;20045;-50
2023/01/23 01:23:25;;;;;;;4.25;2.22;;;;;;;18.95;45.12;101419.84;5033615;28;20050;-48
2023/01/23 01:25:57;;;;;;;4.22;2.40;;;;;;;18.94;45.02;101410.09;5031670;28;20077;-48
2023/01/23 01:28:26;;;;;;;3.38;2.40;;;;;;;18.94;44.96;101409.25;5033194;28;20046;-46
2023/01/23 01:30:53;;;;;;;3.88;2.38;;;;;;;18.95;45.02;101410.94;5033135;28;20403;-49
2023/01/23 01:33:23;;;;;;;3.33;2.10;;;;;;;18.94;45.06;101406.56;5031956;28;20519;-46
2023/01/23 01:35:51;;;;;;;3.83;2.30;;;;;;;18.93;44.89;101402.19;5031747;28;20045;-48
2023/01/23 01:38:18;;;;;;;3.75;2.50;;;;;;;18.94;45.04;101404.72;5033545;28;20048;-46
2023/01/23 01:40:46;;;;;;;4.18;2.15;;;;;;;18.94;45.02;101401.19;5031500;28;20519;-50
2023/01/23 01:43:25;;;;;;;3.80;2.22;;;;;;;18.93;44.83;101399.50;5033072;28;20052;-48
2023/01/23 01:45:55;;;;;;;3.05;2.03;;;;;;;18.93;45.00;101396.81;5033062;28;20041;-46
2023/01/23 01:48:54;;;;;;;3.83;2.10;;;;;;;18.92;45.12;101390.59;5033340;28;20058;-59
2023/01/23 01:51:27;;;;;;;3.85;2.25;;;;;;;18.92;44.82;101390.59;5030941;28;20049;-59
2023/01/23 01:54:23;;;;;;;2.97;2.38;;;;;;;18.92;44.92;101384.34;5032093;28;20527;-59
2023/01/23 01:56:59;;;;;;;4.15;2.40;;;;;;;18.91;45.33;101385.31;5031361;28;20486;-59
2023/01/23 01:59:31;;;;;;;5.55;2.40;;;;;;;18.91;44.98;101371.91;5031579;28;20384;-45
2023/01/23 02:02:08;;;;;;;4.60;2.30;;;;;;;18.91;45.24;101362.03;5031609;28;20064;-46
2023/01/23 02:04:41;;;;;;;4.78;2.58;;;;;;;18.91;45.04;101362.03;5034221;28;20068;-48
2023/01/23 02:07:19;;;;;;;4.03;2.40;;;;;;;18.89;45.01;101363.13;5035742;28;20049;-49
2023/01/23 02:09:47;;;;;;;3.75;2.50;;;;;;;18.89;45.14;101368.50;5036736;28;20052;-48
2023/01/23 02:12:15;;;;;;;3.17;2.15;;;;;;;18.88;44.82;101374.81;5036530;28;20052;-46
2023/01/23 02:14:43;;;;;;;4.63;3.00;;;;;;;18.89;45.21;101368.50;5036213;28;20056;-47
2023/01/23 02:17:10;;;;;;;3.63;2.53;;;;;;;18.89;44.88;101371.19;5034823;28;20061;-51
2023/01/23 02:19:44;;;;;;;4.05;2.17;;;;;;;18.89;45.04;101365.81;5035632;28;20087;-47
2023/01/23 02:22:34;;;;;;;3.92;2.20;;;;;;;18.88;44.95;101366.75;5036391;28;20064;-47
2023/01/23 02:25:16;;;;;;;4.28;2.30;;;;;;;18.89;44.97;101360.44;5035263;28;20064;-48
2023/01/23 02:27:45;;;;;;;3.05;2.47;;;;;;;18.88;45.15;101351.56;5034640;28;20476;-46
2023/01/23 02:30:14;;;;;;;3.58;2.40;;;;;;;18.89;44.83;101347.03;5035323;28;20045;-46
2023/01/23 02:32:42;;;;;;;4.55;2.10;;;;;;;18.88;45.09;101351.56;5035075;28;20049;-48
2023/01/23 02:35:19;;;;;;;4.63;2.22;;;;;;;18.88;45.10;101347.97;5034677;28;20057;-46
2023/01/23 02:37:51;;;;;;;3.97;2.00;;;;;;;18.88;44.92;101338.13;5035100;28;20357;-47
2023/01/23 02:40:21;;;;;;;4.25;2.55;;;;;;;18.87;44.88;101324.81;5034949;28;20064;-47
2023/01/23 02:42:49;;;;;;;6.05;2.50;;;;;;;18.87;44.79;101319.44;5034869;28;20053;-49
2023/01/23 02:45:17;;;;;;;3.30;2.20;;;;;;;18.87;44.89;101324.81;5034030;28;20053;-46
2023/01/23 02:47:45;;;;;;;3.67;2.38;;;;;;;18.87;45.00;101319.44;5035827;28;20061;-58
2023/01/23 02:50:20;;;;;;;3.08;1.88;;;;;;;18.86;44.88;101315.91;5033862;28;20053;-59
2023/01/23 02:52:49;;;;;;;3.80;2.53;;;;;;;18.87;44.88;101319.44;5018209;28;20064;-60
2023/01/23 02:55:18;;;;;;;3.22;2.20;;;;;;;18.86;45.06;101315.91;5033779;28;20045;-59
2023/01/23 02:57:46;;;;;;;3.92;2.58;;;;;;;18.86;44.79;101323.13;5034221;28;20411;-55
2023/01/23 03:00:18;;;;;;;3.30;2.03;;;;;;;18.87;45.01;101311.41;5034623;28;20049;-59
2023/01/23 03:02:49;;;;;;;4.30;2.35;;;;;;;18.86;44.93;101301.66;5033828;28;20056;-59
2023/01/23 03:05:17;;;;;;;3.75;2.50;;;;;;;18.85;44.79;101306.16;5034559;28;20049;-59
2023/01/23 03:07:44;;;;;;;3.78;2.58;;;;;;;18.85;44.99;101299.94;5034298;28;20388;-52
2023/01/23 03:10:12;;;;;;;3.22;2.20;;;;;;;18.85;44.87;101295.44;5035585;28;20041;-59
2023/01/23 03:12:44;;;;;;;3.35;2.20;;;;;;;18.84;45.02;101291.06;5034546;28;20404;-59
2023/01/23 03:15:13;;;;;;;5.35;2.55;;;;;;;18.85;44.89;101291.91;5033451;28;20060;-59
2023/01/23 03:17:40;;;;;;;3.33;2.20;;;;;;;18.85;44.98;101289.22;5035237;28;20404;-59
2023/01/23 03:20:08;;;;;;;3.38;2.25;;;;;;;18.83;45.06;101283.94;5034146;28;20053;-48
2023/01/23 03:22:35;;;;;;;3.08;2.28;;;;;;;18.83;44.87;101294.69;5034271;28;20069;-47
2023/01/23 03:25:03;;;;;;;4.07;2.28;;;;;;;18.82;44.74;101292.97;5035112;28;20395;-51
2023/01/23 03:27:32;;;;;;;3.13;2.10;;;;;;;18.82;44.82;101279.56;5033725;28;20419;-47
2023/01/23 03:30:15;;;;;;;3.63;2.22;;;;;;;18.83;44.64;101288.47;5033578;28;20057;-59
2023/01/23 03:32:44;;;;;;;;;;;;;;;18.83;45.04;101280.41;5032941;28;20045;-59
2023/01/23 03:35:21;;;;;;;3.38;2.38;;;;;;;18.82;44.77;101289.44;5033585;28;20279;-59
2023/01/23 03:37:51;;;;;;;3.08;2.20;;;;;;;18.82;44.94;101281.41;5033950;28;20403;-57
2023/01/23 03:43:13;;;;;;;3.78;2.30;;;;;;;18.82;44.71;101287.63;5033357;28;20057;-47
2023/01/23 03:45:46;;;;;;;3.63;2.08;;;;;;;18.82;44.69;101292.13;5032881;28;20049;-46
2023/01/23 03:48:14;;;;;;;4.65;1.92;;;;;;;18.82;44.68;101286.78;5033568;28;20060;-58
2023/01/23 03:50:43;;;;;;;4.50;2.53;;;;;;;18.82;44.70;101295.66;5032922;28;20480;-59
2023/01/23 03:53:10;;;;;;;5.90;2.35;;;;;;;18.82;44.90;101297.50;5033044;28;20053;-59
2023/01/23 03:55:38;;;;;;;2.85;2.00;;;;;;;18.81;44.71;101291.28;5032964;28;20056;-59
2023/01/23 03:58:05;;;;;;;3.47;2.25;;;;;;;18.82;44.73;101286.78;5033006;28;20056;-50
2023/01/23 04:00:34;;;;;;;4.05;1.98;;;;;;;18.82;44.78;101290.31;5032443;28;20076;-46
2023/01/23 04:03:05;;;;;;;3.25;2.20;;;;;;;18.83;45.04;101296.50;5032560;28;20377;-46
2023/01/23 04:05:33;;;;;;;2.80;2.17;;;;;;;18.82;45.14;101298.34;5034455;28;20068;-48
2023/01/23 04:08:01;;;;;;;3.83;2.28;;;;;;;18.81;45.14;101293.97;5033747;28;20049;-53
2023/01/23 04:10:30;;;;;;;4.00;1.98;;;;;;;18.81;45.16;101290.44;5033230;28;20049;-59
2023/01/23 04:13:03;;;;;;;4.47;2.33;;;;;;;18.81;45.09;101287.75;5032440;28;20512;-59
2023/01/23 04:15:32;;;;;;;4.25;2.00;;;;;;;18.81;44.92;101279.69;5032639;28;20049;-59
2023/01/23 04:18:01;;;;;;;4.47;2.22;;;;;;;18.80;45.00;101284.22;5032717;28;20049;-48
2023/01/23 04:20:29;;;;;;;3.97;2.28;;;;;;;18.80;44.71;101286.00;5032122;28;20052;-47
2023/01/23 04:22:57;;;;;;;3.90;2.67;;;;;;;18.80;44.84;101288.69;5032025;28;20053;-46
2023/01/23 04:25:28;;;;;;;2.63;1.83;;;;;;;18.80;44.65;101288.69;5031709;28;20523;-48
2023/01/23 04:27:58;;;;;;;3.33;2.05;;;;;;;18.80;44.77;101283.34;5031508;28;20049;-46
2023/01/23 04:30:26;;;;;;;2.97;1.90;;;;;;;18.79;44.58;101274.44;5032064;28;20056;-59
2023/01/23 04:32:54;;;;;;;3.65;2.17;;;;;;;18.79;44.80;101266.38;5031936;28;20118;-58
2023/01/23 04:35:22;;;;;;;3.03;1.92;;;;;;;18.78;44.57;101262.84;5031545;28;20057;-59
2023/01/23 04:37:51;;;;;;;3.78;1.63;;;;;;;18.77;44.60;101253.09;5032437;28;20045;-58
2023/01/23 04:40:20;;;;;;;5.60;2.20;;;;;;;18.78;44.60;101257.50;5032637;28;20499;-49
2023/01/23 04:42:54;;;;;;;3.50;2.05;;;;;;;18.78;44.61;101245.91;5031722;28;20056;-47
2023/01/23 04:45:32;;;;;;;3.33;2.00;;;;;;;18.78;44.52;101240.53;5031916;28;20053;-47
2023/01/23 04:48:18;;;;;;;3.17;2.08;;;;;;;18.77;44.43;101234.31;5040797;28;20056;-58
2023/01/23 04:50:45;;;;;;;4.13;2.13;;;;;;;18.77;44.47;101237.00;5033466;28;20388;-59
2023/01/23 04:53:13;;;;;;;3.65;2.13;;;;;;;18.76;44.45;101229.09;5031922;28;20054;-59
2023/01/23 04:55:45;;;;;;;3.28;1.90;;;;;;;18.76;44.36;101235.31;5032271;28;20057;-59
2023/01/23 04:58:16;;;;;;;3.67;2.42;;;;;;;18.76;44.54;101234.47;5032414;28;20053;-46
2023/01/23 05:00:44;;;;;;;3.13;1.70;;;;;;;18.76;44.35;101235.31;5033545;28;20060;-47
2023/01/23 05:03:13;;;;;;;2.65;1.90;;;;;;;18.77;44.41;101228.13;5032126;28;20052;-48
2023/01/23 05:05:46;;;;;;;3.72;2.28;;;;;;;18.77;44.40;101241.53;5034238;28;20057;-48
2023/01/23 05:08:13;;;;;;;2.78;1.67;;;;;;;18.76;44.33;101246.03;5032583;28;20049;-58
2023/01/23 05:10:46;;;;;;;2.95;1.98;;;;;;;18.76;44.43;101234.47;5032145;28;20054;-46
2023/01/23 05:13:16;;;;;;;4.65;2.08;;;;;;;18.76;44.54;101229.94;5031749;28;20056;-46
2023/01/23 05:15:44;;;;;;;3.78;1.90;;;;;;;18.76;44.13;101237.16;5033176;28;20041;-46
2023/01/23 05:18:12;;;;;;;3.33;2.03;;;;;;;18.77;44.19;101238.84;5032065;28;20049;-47
2023/01/23 05:20:39;;;;;;;3.38;2.00;;;;;;;18.74;44.21;101226.50;5031972;28;20057;-58
2023/01/23 05:23:07;;;;;;;2.95;1.88;;;;;;;18.76;44.25;101218.38;5032196;28;20058;-59
2023/01/23 05:25:43;;;;;;;3.78;1.92;;;;;;;18.76;44.30;101229.09;5031857;28;20518;-59
2023/01/23 05:28:11;;;;;;;4.43;1.77;;;;;;;18.75;44.27;101220.16;5031466;28;20058;-49
2023/01/23 05:30:46;;;;;;;2.72;1.85;;;;;;;18.74;44.17;101206.88;5031464;28;20502;-49
2023/01/23 05:33:22;;;;;;;3.00;1.90;;;;;;;18.73;44.27;101206.03;5031910;28;20053;-47
2023/01/23 05:35:49;;;;;;;2.85;1.95;;;;;;;18.74;44.23;101198.84;5033186;28;20046;-47
2023/01/23 05:38:18;;;;;;;3.67;1.90;;;;;;;18.72;44.15;101192.75;5031974;28;20048;-46
2023/01/23 05:40:45;;;;;;;3.28;1.75;;;;;;;18.73;43.98;101191.78;5034941;28;20045;-46
2023/01/23 05:43:14;;;;;;;2.70;1.70;;;;;;;18.73;44.16;101199.81;5036901;28;20068;-49
2023/01/23 05:45:58;;;;;;;;;;;;;;;18.71;44.26;101194.56;5042948;28;20057;-48
2023/01/23 05:48:32;;;;;;;4.70;2.25;;;;;;;18.71;44.09;101185.66;5036062;28;19921;-46
2023/01/23 05:51:03;;;;;;;3.03;2.05;;;;;;;18.71;44.09;101191.03;5035123;28;20488;-47
2023/01/23 05:53:31;;;;;;;3.05;1.92;;;;;;;18.70;44.08;101187.50;5036588;28;20068;-50
2023/01/23 05:55:58;;;;;;;3.78;2.05;;;;;;;18.69;44.02;101185.75;5036377;28;20061;-48
2023/01/23 05:58:26;;;;;;;3.30;1.80;;;;;;;18.70;44.18;101178.59;5035026;28;20061;-59
2023/01/23 06:01:17;;;;;;;2.90;1.88;;;;;;;18.68;44.17;101194.78;5033878;28;20060;-59
2023/01/23 06:04:03;;;;;;;2.83;1.80;;;;;;;18.68;44.07;101194.78;5043381;28;20400;-59
2023/01/23 06:06:42;;;;;;;3.25;2.03;;;;;;;18.68;44.07;101191.25;5034770;28;20403;-58
2023/01/23 06:09:10;;;;;;;3.20;1.98;;;;;;;18.68;44.06;101194.78;5035119;28;20565;-58
2023/01/23 06:11:38;;;;;;;3.05;1.90;;;;;;;18.69;44.15;101190.28;5034813;28;20052;-58
2023/01/23 06:14:08;;;;;;;2.92;2.05;;;;;;;18.68;44.23;101188.56;5034543;28;20054;-59
2023/01/23 06:16:35;;;;;;;4.28;2.15;;;;;;;18.68;44.10;101191.25;5034636;28;20499;-59
2023/01/23 06:19:04;;;;;;;2.30;1.50;;;;;;;18.69;44.28;101192.94;5035244;28;20053;-51
2023/01/23 06:21:35;;;;;;;3.80;1.90;;;;;;;18.67;44.14;101190.38;5018611;28;20400;-48
2023/01/23 06:24:03;;;;;;;3.33;2.08;;;;;;;18.67;44.14;101190.38;5034650;28;20057;-48
2023/01/23 06:26:30;;;;;;;3.00;2.00;;;;;;;18.67;44.12;101184.16;5034367;28;20053;-59
2023/01/23 06:28:58;;;;;;;3.40;1.90;;;;;;;18.66;44.20;101186.00;5034816;28;20060;-48
2023/01/23 06:31:25;;;;;;;3.33;2.00;;;;;;;18.66;44.18;101191.34;5034207;28;20050;-48
2023/01/23 06:33:57;;;;;;;3.30;1.92;;;;;;;18.67;44.11;101184.16;5051573;28;20065;-50
2023/01/23 06:36:29;;;;;;;2.70;1.40;;;;;;;18.67;43.97;101179.66;5034553;28;20063;-45
2023/01/23 06:38:57;;;;;;;3.72;1.77;;;;;;;18.67;44.06;101181.47;5034358;28;20045;-46
2023/01/23 06:41:31;;;;;;;3.13;1.65;;;;;;;18.65;44.17;101178.94;5034034;28;20050;-48
2023/01/23 06:44:02;;;;;;;2.78;1.63;;;;;;;18.66;43.90;101182.47;5034599;28;20057;-46
2023/01/23 06:46:30;;;;;;;2.97;1.60;;;;;;;18.67;43.98;101185.00;5034024;28;20049;-45
2023/01/23 06:48:58;;;;;;;3.00;1.70;;;;;;;18.67;43.93;101178.78;5034453;28;20050;-58
2023/01/23 06:51:27;;;;;;;2.97;1.40;;;;;;;18.65;43.88;101168.19;5035141;28;20045;-58
2023/01/23 06:53:56;;;;;;;3.10;1.90;;;;;;;18.65;43.81;101176.25;5034648;28;20057;-58
2023/01/23 06:56:24;;;;;;;3.03;1.83;;;;;;;18.66;43.86;101169.91;5034006;28;20061;-58
2023/01/23 06:58:52;;;;;;;2.83;1.75;;;;;;;18.66;43.98;101182.47;5033928;28;20045;-50
2023/01/23 07:01:25;;;;;;;2.53;1.40;;;;;;;18.65;43.88;101170.88;5034152;28;20065;-46
2023/01/23 07:04:12;;;;;;;2.75;1.58;;;;;;;18.65;43.82;101164.66;5035182;28;20052;-46
2023/01/23 07:06:41;;;;;;;2.78;1.70;;;;;;;18.65;43.78;101160.16;5034328;28;20064;-46
2023/01/23 07:09:11;;;;;;;3.05;1.80;;;;;;;18.64;43.80;101147.72;5033750;28;20061;-59
2023/01/23 07:11:38;;;;;;;2.90;1.85;;;;;;;18.65;43.88;101151.25;5033417;28;20389;-58
2023/01/23 07:14:06;;;;;;;2.78;1.63;;;;;;;18.64;43.90;101155.78;5033709;28;20050;-58
2023/01/23 07:16:36;;;;;;;3.30;1.75;;;;;;;18.63;43.93;101162.09;5033326;28;20396;-59
2023/01/23 07:19:04;;;;;;;3.72;1.90;;;;;;;18.63;43.76;101163.91;5033509;28;20056;-47
2023/01/23 07:21:34;;;;;;;3.53;2.05;;;;;;;18.62;43.79;101165.75;5033314;28;20054;-45
2023/01/23 07:24:02;;;;;;;3.13;1.77;;;;;;;18.62;43.93;101151.50;5034764;28;20060;-46
2023/01/23 07:26:29;;;;;;;3.33;2.05;;;;;;;18.61;43.88;101158.69;5034911;28;20395;-47
2023/01/23 07:28:57;;;;;;;2.78;1.70;;;;;;;18.62;43.87;101146.13;5035058;28;20057;-45
2023/01/23 07:31:24;;;;;;;3.35;2.00;;;;;;;18.61;43.75;101150.63;5034659;28;20049;-46
2023/01/23 07:33:52;;;;;;;2.78;1.80;;;;;;;18.60;43.88;101148.09;5034576;28;20045;-49
2023/01/23 07:36:19;;;;;;;3.28;1.80;;;;;;;18.60;43.78;101151.63;5034266;28;20050;-45
2023/01/23 07:38:46;;;;;;;2.25;1.40;;;;;;;18.60;43.90;101142.72;5034736;28;20042;-58
2023/01/23 07:41:13;;;;;;;4.50;1.58;;;;;;;18.61;44.05;101147.09;5034438;28;20058;-58
2023/01/23 07:43:41;;;;;;;4.57;1.75;;;;;;;18.62;44.04;101146.97;5034496;28;20053;-49
2023/01/23 07:46:08;;;;;;;2.72;1.65;;;;;;;18.62;44.12;101148.81;5034454;28;20053;-49
2023/01/23 07:48:36;;;;;;;3.63;1.67;;;;;;;18.62;44.00;101162.22;5034726;28;20048;-57
2023/01/23 07:51:04;;;;;;;3.97;2.15;;;;;;;18.61;44.03;101160.50;5033199;28;20050;-58
2023/01/23 07:53:32;;;;;;;3.30;1.83;;;;;;;18.62;44.26;101152.34;5051702;28;20048;-57
2023/01/23 07:56:03;;;;;;;4.38;2.83;;;;;;;18.63;43.98;101155.88;5054248;28;20047;-57
2023/01/23 07:58:31;;;;;;;3.30;1.67;;;;;;;18.61;44.04;101144.44;5054463;28;20085;-49
2023/01/23 08:00:58;;;;;;;3.30;2.08;;;;;;;18.60;43.94;101156.13;5054089;28;20063;-50
2023/01/23 08:03:27;;;;;;;3.40;2.13;;;;;;;18.61;44.16;101145.28;5052230;28;20049;-47
2023/01/23 08:05:55;;;;;;;5.18;1.98;;;;;;;18.64;44.57;101142.38;5054134;28;20049;-48
2023/01/23 08:08:22;;;;;;;5.68;3.85;;;;;;;18.63;41.01;101146.00;5054993;28;20049;-58
2023/01/23 08:10:49;;;;;;;5.80;4.55;;;;;;;18.54;39.99;101138.69;5053124;28;20491;-58
2023/01/23 08:13:17;;;;;;;6.60;4.90;;;;;;;18.46;39.56;101150.00;5060556;28;20048;-59
2023/01/23 08:15:45;;;;;;;7.57;4.32;;;;;;;18.40;39.75;101138.91;5053029;28;20055;-60
2023/01/23 08:18:12;;;;;;;5.40;4.72;;;;;;;18.37;39.34;101147.19;5053824;28;20048;-55
2023/01/23 08:20:40;;;;;;;5.85;4.93;;;;;;;18.33;38.66;101140.34;5053480;28;20048;-58
2023/01/23 08:23:07;;;;;;;6.18;5.00;;;;;;;18.29;38.53;101142.41;5053437;28;20049;-59
2023/01/23 08:25:37;;;;;;;7.53;5.10;;;;;;;18.26;38.58;101148.84;5053572;28;20392;-60
2023/01/23 08:28:04;;;;;;;6.40;5.70;;;;;;;18.24;38.52;101140.06;5053663;28;20040;-60
2023/01/23 08:30:31;;;;;;;7.55;5.07;;;;;;;18.22;38.59;101152.72;5053649;28;20049;-47
2023/01/23 08:32:59;;;;;;;7.13;4.93;;;;;;;18.19;38.56;101144.94;5053285;28;20119;-46
2023/01/23 08:35:26;;;;;;;5.47;4.75;;;;;;;18.17;38.27;101157.59;5053292;28;20064;-46
2023/01/23 08:37:54;;;;;;;5.38;4.88;;;;;;;18.15;38.33;101164.91;5053250;28;20510;-56
2023/01/23 08:40:22;;;;;;;6.65;5.72;;;;;;;18.13;38.04;101165.97;5052781;28;20064;-55
2023/01/23 08:42:49;;;;;;;6.05;5.30;;;;;;;18.11;38.13;101162.53;5053092;28;20044;-55
2023/01/23 08:45:16;;;;;;;6.68;4.88;;;;;;;18.12;38.58;101173.16;5052277;28;20056;-57
2023/01/23 08:47:44;;;;;;;5.72;4.90;;;;;;;18.15;39.10;101164.03;5053199;28;20056;-60
2023/01/23 08:50:11;;;;;;;5.00;4.10;;;;;;;18.19;41.17;101169.06;5052849;28;20049;-61
2023/01/23 08:52:39;;;;;;;6.72;3.63;;;;;;;18.24;40.31;101174.06;5052525;28;20044;-61
2023/01/23 08:55:07;;;;;;;5.13;3.70;;;;;;;18.28;41.27;101171.03;5052537;28;20102;-61
2023/01/23 08:57:34;;;;;;;5.15;3.00;;;;;;;18.32;41.95;101174.34;5052765;28;20049;-59
2023/01/23 09:00:02;;;;;;;5.50;3.00;;;;;;;18.36;42.59;101177.63;5051756;28;20076;-60
2023/01/23 09:02:30;;;;;;;3.80;2.80;;;;;;;18.39;45.18;101169.34;5052755;28;20068;-54
2023/01/23 09:04:57;;;;;;;4.45;2.85;;;;;;;18.41;45.22;101172.78;5052879;28;20056;-57
2023/01/23 09:07:25;;;;;;;3.13;2.63;;;;;;;18.43;42.49;101173.50;5053064;28;20045;-59
2023/01/23 09:09:53;;;;;;;6.75;2.58;;;;;;;18.45;44.81;101167.06;5053266;28;20055;-47
2023/01/23 09:12:21;;;;;;;4.40;2.53;;;;;;;18.46;45.93;101184.00;5053123;28;20406;-47
2023/01/23 09:14:48;;;;;;;5.00;2.83;;;;;;;18.47;45.24;101185.69;5056285;28;20040;-50
2023/01/23 09:17:15;;;;;;;4.97;2.88;;;;;;;18.47;42.83;101183.88;5056979;28;20052;-49
2023/01/23 09:19:43;;;;;;;5.40;2.72;;;;;;;18.50;43.17;101182.78;5057122;28;20056;-46
2023/01/23 09:22:10;;;;;;;5.82;3.38;;;;;;;18.51;44.18;101177.31;5056864;28;20056;-49
2023/01/23 09:24:37;;;;;;;4.05;2.75;;;;;;;18.52;44.04;101195.13;5056827;28;20045;-46
2023/01/23 09:27:05;;;;;;;3.47;2.55;;;;;;;18.53;44.18;101193.28;5056800;28;20051;-47
2023/01/23 09:29:32;;;;;;;5.65;2.58;;;;;;;18.54;45.70;101197.66;5057050;28;20049;-59
2023/01/23 09:32:00;;;;;;;4.90;2.10;;;;;;;18.54;44.66;101198.50;5056765;28;20049;-59
2023/01/23 09:34:28;;;;;;;3.50;2.42;;;;;;;18.55;44.90;101188.63;5056636;28;20049;-62
2023/01/23 09:36:56;;;;;;;3.95;2.47;;;;;;;18.56;46.89;101208.28;5056616;28;20045;-61
2023/01/23 09:39:23;;;;;;;4.05;2.70;;;;;;;18.55;46.52;101199.38;5056613;28;20045;-57
2023/01/23 09:41:50;;;;;;;3.83;2.78;;;;;;;18.56;47.52;101200.25;5056642;28;20403;-60
2023/01/23 09:44:26;;;;;;;4.68;2.38;;;;;;;18.56;45.57;101197.56;5056596;28;20471;-62
2023/01/23 09:47:01;;;;;;;3.03;2.22;;;;;;;18.54;43.57;101194.97;5056261;28;20075;-61
2023/01/23 09:49:57;;;;;;;4.65;2.72;;;;;;;18.54;43.15;101186.94;5056497;28;20044;-48
2023/01/23 09:52:34;;;;;;;4.47;2.85;;;;;;;18.56;42.95;101187.69;5056385;28;20056;-49
2023/01/23 09:55:28;;;;;;;3.65;2.50;;;;;;;18.55;43.29;101177.91;5056254;28;20048;-47
2023/01/23 09:57:56;;;;;;;;;;;;;;;18.55;45.09;101180.59;5055951;28;20061;-61
2023/01/23 10:00:30;;;;;;;3.70;2.40;;;;;;;18.56;44.50;101178.78;5056323;28;19921;-48
2023/01/23 10:03:02;;;;;;;;;;;;;;;18.55;44.33;101172.56;5056347;28;20499;-48
2023/01/23 10:05:45;;;;;;;3.70;2.30;;;;;;;18.56;44.51;101165.38;5054814;28;19927;-50
2023/01/23 10:08:24;;;;;;;4.25;2.72;;;;;;;18.54;45.12;101163.66;5056213;28;20045;-47
2023/01/23 10:10:59;;;;;;;3.58;2.45;;;;;;;18.56;45.44;101160.03;5055808;28;20052;-62
2023/01/23 10:14:02;;;;;;;3.25;2.40;;;;;;;18.55;45.77;101148.41;5055989;28;20052;-60
2023/01/23 10:16:51;;;;;;;5.70;2.03;;;;;;;18.56;44.00;101143.94;5055934;28;20056;-59
2023/01/23 10:19:37;;;;;;;4.53;2.83;;;;;;;18.57;44.04;101145.63;5056020;28;20045;-60
2023/01/23 10:22:43;;;;;;;5.72;2.63;;;;;;;18.57;45.11;101134.91;5055732;28;20373;-60
2023/01/23 10:25:18;;;;;;;5.47;2.67;;;;;;;18.56;44.77;101134.06;5053800;28;20400;-55
2023/01/23 10:27:48;;;;;;;3.70;1.85;;;;;;;18.57;44.99;101132.22;5054672;28;20056;-59
2023/01/23 10:30:32;;;;;;;3.45;2.40;;;;;;;18.57;45.16;101125.03;5055920;28;20052;-59
2023/01/23 10:33:16;;;;;;;4.50;2.60;;;;;;;18.57;43.66;101105.41;5055318;28;20060;-57
2023/01/23 10:35:49;;;;;;;3.97;2.20;;;;;;;18.57;44.43;101114.31;5055547;28;20143;-61
2023/01/23 10:38:30;;;;;;;4.32;2.50;;;;;;;18.58;43.45;101113.34;5055698;28;20501;-54
2023/01/23 10:41:12;;;;;;;4.28;2.08;;;;;;;18.58;44.93;101110.66;5055044;28;20049;-46
2023/01/23 10:43:42;;;;;;;5.53;2.17;;;;;;;18.59;42.99;101103.44;5055445;28;20049;-48
2023/01/23 10:46:18;;;;;;;4.10;2.63;;;;;;;18.58;42.89;101094.56;5055241;28;20045;-47
2023/01/23 10:48:47;;;;;;;4.00;2.83;;;;;;;18.58;42.54;101086.53;5055478;28;20067;-48
2023/01/23 10:51:37;;;;;;;3.20;2.38;;;;;;;18.58;42.56;101086.53;5055250;28;20053;-50
2023/01/23 10:54:07;;;;;;;5.72;2.63;;;;;;;18.58;42.64;101099.94;5055591;28;20047;-48
2023/01/23 10:56:54;;;;;;;3.53;2.80;;;;;;;18.58;42.43;101102.59;5055126;28;20055;-48
2023/01/23 10:59:40;;;;;;;3.58;2.30;;;;;;;18.60;42.51;101113.22;5055722;28;20305;-46
2023/01/23 11:02:13;;;;;;;3.55;2.40;;;;;;;18.60;43.37;101103.34;5039129;28;20057;-46
2023/01/23 11:04:43;;;;;;;3.58;2.63;;;;;;;18.60;42.60;101108.72;5046389;28;20048;-47
2023/01/23 11:07:25;;;;;;;4.90;2.83;;;;;;;18.60;42.27;101097.16;5044900;28;20044;-46
2023/01/23 11:09:54;;;;;;;3.85;2.70;;;;;;;18.60;42.03;101089.94;5054342;28;20052;-61
2023/01/23 11:12:23;;;;;;;4.47;2.35;;;;;;;18.60;42.53;101081.91;5047726;28;20045;-61
2023/01/23 11:15:09;;;;;;;2.83;2.00;;;;;;;18.61;41.96;101088.97;5053782;28;20071;-61
2023/01/23 11:17:38;;;;;;;3.90;2.17;;;;;;;18.62;43.78;101087.97;5054395;28;20048;-61
2023/01/23 11:20:32;;;;;;;4.07;2.25;;;;;;;18.62;41.87;101084.44;5053917;28;20044;-50
2023/01/23 11:23:09;;;;;;;3.78;2.72;;;;;;;18.62;43.20;101074.56;5045750;28;20064;-48
2023/01/23 11:25:40;;;;;;;3.65;2.30;;;;;;;18.62;42.40;101069.22;5054272;28;20049;-48
2023/01/23 11:28:23;;;;;;;3.13;2.30;;;;;;;18.63;43.50;101059.34;5054648;28;20053;-48
2023/01/23 11:30:56;;;;;;;3.05;2.10;;;;;;;18.61;42.71;101062.16;5052748;28;20049;-61
2023/01/23 11:33:52;;;;;;;3.40;2.03;;;;;;;18.61;42.29;101040.69;5053912;28;20055;-60
2023/01/23 11:36:29;;;;;;;3.03;2.30;;;;;;;18.61;42.02;101056.78;5054110;28;20048;-60
2023/01/23 11:39:03;;;;;;;3.35;2.20;;;;;;;18.61;42.47;101047.91;5053951;28;20056;-50
2023/01/23 11:41:34;;;;;;;5.35;2.60;;;;;;;18.62;41.87;101061.16;5053701;28;20049;-47
2023/01/23 11:44:13;;;;;;;3.25;2.13;;;;;;;18.61;42.17;101059.47;5053805;28;20052;-47
2023/01/23 11:47:22;;;;;;;3.53;2.33;;;;;;;18.62;42.16;101045.09;5053826;28;20049;-50
2023/01/23 11:50:40;;;;;;;3.20;1.98;;;;;;;18.63;42.36;101062.88;5054003;28;20400;-49